createdAt,value
2019-05-18T00:01:36.929Z,68.19
2019-05-18T00:04:08.333Z,68.10
2019-05-18T00:06:39.783Z,68.04
2019-05-18T00:09:14.204Z,68.22
2019-05-18T00:11:45.168Z,68.22
2019-05-18T00:14:16.283Z,67.94
2019-05-18T00:16:47.046Z,67.89
2019-05-18T00:19:19.182Z,68.09
2019-05-18T00:21:50.633Z,67.91
2019-05-18T00:24:22.100Z,67.75
2019-05-18T00:26:53.745Z,68.23
2019-05-18T00:29:24.398Z,68.06
2019-05-18T00:31:55.719Z,67.94
2019-05-18T00:34:27.060Z,68.39
2019-05-18T00:39:36.311Z,68.55
2019-05-18T00:42:08.281Z,68.53
2019-05-18T00:44:39.525Z,68.60
2019-05-18T00:47:11.173Z,68.36
2019-05-18T00:49:42.824Z,68.58
2019-05-18T00:52:14.792Z,68.39
2019-05-18T00:54:46.143Z,68.41
2019-05-18T00:57:17.706Z,68.37
2019-05-18T00:59:49.555Z,68.18
2019-05-18T01:02:21.306Z,68.20
2019-05-18T01:04:52.758Z,68.00
2019-05-18T01:07:24.311Z,68.13
2019-05-18T01:09:56.065Z,68.10
2019-05-18T01:12:27.730Z,68.12
2019-05-18T01:14:59.278Z,68.37
2019-05-18T01:17:31.132Z,68.49
2019-05-18T01:20:02.486Z,68.53
2019-05-18T01:22:33.252Z,68.55
2019-05-18T01:25:04.971Z,68.87
2019-05-18T01:27:36.425Z,68.95
2019-05-18T01:30:09.311Z,68.78
2019-05-18T01:32:41.067Z,68.99
2019-05-18T01:35:13.740Z,69.19
2019-05-18T01:37:45.095Z,69.62
2019-05-18T01:40:17.470Z,69.29
2019-05-18T01:42:51.470Z,69.39
2019-05-18T01:45:23.437Z,69.75
2019-05-18T01:47:54.783Z,69.72
2019-05-18T01:50:26.341Z,69.60
2019-05-18T01:52:58.816Z,69.94
2019-05-18T01:55:30.465Z,69.86
2019-05-18T01:58:02.031Z,69.75
2019-05-18T02:00:33.780Z,69.94
2019-05-18T02:03:06.557Z,70.09
2019-05-18T02:05:40.369Z,69.87
2019-05-18T02:08:12.118Z,70.00
2019-05-18T02:10:43.672Z,70.08
2019-05-18T02:13:15.428Z,70.05
2019-05-18T02:15:46.094Z,69.91
2019-05-18T02:18:28.654Z,70.28
2019-05-18T02:20:50.403Z,70.05
2019-05-18T02:23:22.256Z,70.12
2019-05-18T02:25:53.807Z,70.14
2019-05-18T02:28:25.360Z,70.25
2019-05-18T02:30:57.114Z,70.00
2019-05-18T02:33:28.569Z,70.25
2019-05-18T02:36:00.334Z,70.28
2019-05-18T02:38:32.592Z,70.02
2019-05-18T02:41:04.250Z,70.18
2019-05-18T02:43:36.106Z,70.00
2019-05-18T02:46:07.661Z,69.87
2019-05-18T02:48:49.445Z,70.18
2019-05-18T02:51:12.208Z,69.99
2019-05-18T02:53:44.264Z,70.10
2019-05-18T02:56:15.818Z,69.86
2019-05-18T02:58:46.586Z,69.37
2019-05-18T03:01:18.410Z,68.66
2019-05-18T03:03:49.963Z,68.23
2019-05-18T03:06:22.133Z,68.58
2019-05-18T03:08:53.575Z,68.23
2019-05-18T03:11:26.072Z,66.84
2019-05-18T03:13:57.813Z,66.79
2019-05-18T03:16:29.667Z,66.38
2019-05-18T03:19:08.197Z,67.16
2019-05-18T03:21:35.025Z,67.45
2019-05-18T03:24:06.787Z,65.38
2019-05-18T03:26:38.540Z,66.19
2019-05-18T03:29:09.888Z,66.74
2019-05-18T03:31:41.546Z,65.46
2019-05-18T03:34:13.303Z,66.33
2019-05-18T03:36:45.266Z,66.88
2019-05-18T03:39:16.748Z,66.57
2019-05-18T03:41:48.679Z,66.56
2019-05-18T03:44:20.353Z,66.37
2019-05-18T03:46:52.199Z,66.90
2019-05-18T03:49:27.526Z,66.52
2019-05-18T03:51:57.265Z,66.42
2019-05-18T03:54:29.204Z,66.22
2019-05-18T03:57:00.859Z,66.52
2019-05-18T03:59:32.412Z,66.14
2019-05-18T04:02:04.261Z,66.31
2019-05-18T04:04:35.827Z,65.87
2019-05-18T04:07:07.787Z,65.99
2019-05-18T04:09:39.439Z,65.66
2019-05-18T04:12:11.007Z,65.03
2019-05-18T04:14:42.444Z,64.14
2019-05-18T04:17:14.917Z,64.71
2019-05-18T04:19:47.586Z,64.37
2019-05-18T04:22:19.152Z,65.06
2019-05-18T04:24:50.813Z,64.76
2019-05-18T04:27:22.470Z,64.31
2019-05-18T04:29:54.368Z,64.16
2019-05-18T04:32:25.972Z,63.87
2019-05-18T04:34:57.441Z,63.22
2019-05-18T04:37:29.181Z,63.85
2019-05-18T04:40:01.665Z,63.48
2019-05-18T04:42:33.216Z,63.22
2019-05-18T04:45:06.237Z,63.91
2019-05-18T04:47:38.165Z,62.31
2019-05-18T04:50:10.610Z,62.85
2019-05-18T04:52:42.195Z,62.71
2019-05-18T04:55:13.844Z,62.95
2019-05-18T04:57:45.294Z,62.42
2019-05-18T05:00:17.458Z,62.38
2019-05-18T05:02:49.124Z,62.40
2019-05-18T05:05:20.868Z,61.92
2019-05-18T05:07:52.730Z,61.86
2019-05-18T05:10:24.384Z,61.90
2019-05-18T05:12:56.864Z,61.44
2019-05-18T05:15:28.612Z,61.75
2019-05-18T05:18:00.066Z,61.68
2019-05-18T05:20:31.928Z,61.04
2019-05-18T05:23:03.379Z,61.34
2019-05-18T05:25:35.131Z,61.25
2019-05-18T05:28:06.789Z,61.22
2019-05-18T05:30:38.550Z,61.29
2019-05-18T05:33:10.206Z,60.87
2019-05-18T05:35:42.060Z,60.86
2019-05-18T05:38:13.622Z,60.34
2019-05-18T05:40:45.058Z,60.28
2019-05-18T05:43:16.714Z,60.14
2019-05-18T05:45:48.384Z,60.20
2019-05-18T05:48:20.138Z,60.16
2019-05-18T05:50:51.742Z,59.99
2019-05-18T05:53:23.742Z,58.76
2019-05-18T05:55:55.296Z,59.93
2019-05-18T05:58:27.056Z,59.53
2019-05-18T06:00:58.615Z,59.22
2019-05-18T06:03:30.490Z,58.66
2019-05-18T06:06:02.341Z,59.17
2019-05-18T06:08:34.088Z,58.87
2019-05-18T06:11:05.741Z,58.78
2019-05-18T06:13:37.207Z,59.39
2019-05-18T06:16:08.848Z,59.37
2019-05-18T06:18:40.310Z,59.06
2019-05-18T06:21:12.051Z,58.28
2019-05-18T06:23:44.117Z,57.97
2019-05-18T06:26:15.470Z,57.90
2019-05-18T06:28:47.332Z,58.29
2019-05-18T06:31:18.983Z,57.76
2019-05-18T06:33:50.946Z,57.88
2019-05-18T06:36:22.801Z,57.24
2019-05-18T06:38:55.694Z,57.85
2019-05-18T06:41:27.255Z,56.89
2019-05-18T06:43:58.799Z,57.43
2019-05-18T06:46:30.754Z,56.95
2019-05-18T06:49:02.408Z,56.28
2019-05-18T06:51:34.380Z,56.31
2019-05-18T06:54:06.324Z,56.58
2019-05-18T06:56:39.366Z,56.26
2019-05-18T06:59:12.060Z,55.33
2019-05-18T07:01:44.172Z,55.88
2019-05-18T07:04:15.716Z,56.35
2019-05-18T07:06:47.479Z,56.68
2019-05-18T07:09:19.025Z,56.76
2019-05-18T07:11:50.678Z,56.14
2019-05-18T07:14:25.636Z,56.23
2019-05-18T07:16:55.531Z,55.77
2019-05-18T07:19:27.493Z,56.07
2019-05-18T07:22:00.794Z,56.36
2019-05-18T07:24:32.442Z,56.61
2019-05-18T07:27:04.509Z,55.84
2019-05-18T07:29:36.263Z,56.05
2019-05-18T07:32:08.139Z,55.90
2019-05-18T07:34:39.981Z,55.77
2019-05-18T07:37:11.428Z,54.98
2019-05-18T07:39:43.191Z,55.28
2019-05-18T07:42:14.658Z,54.73
2019-05-18T07:44:46.090Z,54.79
2019-05-18T07:47:17.563Z,54.80
2019-05-18T07:49:49.398Z,55.08
2019-05-18T07:52:21.155Z,54.79
2019-05-18T07:54:52.618Z,54.19
2019-05-18T07:57:24.264Z,54.27
2019-05-18T07:59:55.915Z,54.53
2019-05-18T08:02:27.709Z,54.12
2019-05-18T08:04:59.432Z,54.35
2019-05-18T08:07:30.880Z,54.73
2019-05-18T08:10:02.432Z,54.37
2019-05-18T08:12:34.293Z,53.16
2019-05-18T08:15:10.226Z,53.86
2019-05-18T08:17:41.923Z,53.43
2019-05-18T08:20:13.760Z,53.52
2019-05-18T08:22:45.319Z,53.37
2019-05-18T08:25:16.873Z,53.58
2019-05-18T08:27:48.521Z,53.41
2019-05-18T08:30:20.384Z,53.64
2019-05-18T08:32:51.934Z,53.51
2019-05-18T08:35:27.012Z,53.84
2019-05-18T08:37:56.678Z,53.03
2019-05-18T08:40:28.435Z,52.88
2019-05-18T08:43:00.099Z,52.58
2019-05-18T08:45:31.545Z,51.86
2019-05-18T08:48:02.946Z,52.62
2019-05-18T08:50:34.761Z,52.74
2019-05-18T08:53:06.849Z,52.98
2019-05-18T08:55:38.192Z,53.02
2019-05-18T08:58:09.678Z,53.04
2019-05-18T09:00:41.387Z,52.76
2019-05-18T09:03:13.128Z,52.42
2019-05-18T09:05:44.779Z,52.40
2019-05-18T09:08:16.648Z,51.40
2019-05-18T09:10:48.250Z,51.56
2019-05-18T09:13:20.057Z,51.66
2019-05-18T09:15:51.911Z,51.89
2019-05-18T09:18:23.623Z,51.10
2019-05-18T09:20:55.527Z,52.17
2019-05-18T09:23:27.396Z,51.71
2019-05-18T09:25:59.258Z,51.27
2019-05-18T09:28:30.908Z,51.67
2019-05-18T09:31:02.456Z,51.75
2019-05-18T09:33:34.220Z,51.86
2019-05-18T09:36:05.876Z,51.98
2019-05-18T09:38:37.536Z,51.76
2019-05-18T09:41:09.389Z,51.33
2019-05-18T09:43:40.944Z,52.29
2019-05-18T09:46:12.398Z,52.12
2019-05-18T09:48:44.353Z,50.71
2019-05-18T09:51:16.111Z,51.26
2019-05-18T09:53:51.533Z,51.46
2019-05-18T09:56:21.466Z,51.54
2019-05-18T09:58:53.329Z,50.67
2019-05-18T10:01:25.458Z,50.75
2019-05-18T10:03:57.764Z,50.63
2019-05-18T10:06:31.443Z,50.49
2019-05-18T10:09:05.062Z,50.80
2019-05-18T10:11:38.598Z,50.68
2019-05-18T10:14:11.759Z,50.95
2019-05-18T10:16:43.454Z,50.83
2019-05-18T10:19:15.164Z,50.92
2019-05-18T10:21:46.618Z,50.95
2019-05-18T10:24:18.576Z,50.20
2019-05-18T10:26:50.333Z,50.47
2019-05-18T10:29:21.993Z,50.67
2019-05-18T10:31:53.598Z,50.79
2019-05-18T10:34:25.200Z,50.31
2019-05-18T10:36:56.852Z,50.81
2019-05-18T10:39:28.612Z,49.74
2019-05-18T10:42:00.168Z,49.50
2019-05-18T10:44:31.822Z,49.15
2019-05-18T10:47:03.783Z,49.36
2019-05-18T10:49:35.334Z,49.52
2019-05-18T10:52:07.402Z,49.61
2019-05-18T10:54:39.056Z,48.86
2019-05-18T10:57:11.326Z,49.59
2019-05-18T10:59:42.669Z,49.98
2019-05-18T11:02:14.846Z,49.08
2019-05-18T11:04:46.492Z,48.92
2019-05-18T11:07:18.250Z,49.66
2019-05-18T11:09:51.854Z,48.76
2019-05-18T11:12:23.715Z,48.37
2019-05-18T11:14:55.566Z,48.00
2019-05-18T11:17:27.741Z,48.58
2019-05-18T11:19:59.595Z,47.83
2019-05-18T11:22:31.557Z,48.01
2019-05-18T11:25:03.624Z,48.13
2019-05-18T11:27:35.079Z,47.84
2019-05-18T11:30:08.127Z,47.67
2019-05-18T11:32:40.432Z,47.19
2019-05-18T11:35:12.407Z,47.29
2019-05-18T11:37:44.260Z,47.45
2019-05-18T11:40:17.161Z,47.61
2019-05-18T11:42:49.097Z,47.64
2019-05-18T11:45:22.587Z,47.50
2019-05-18T11:47:54.049Z,46.59
2019-05-18T11:50:26.215Z,45.97
2019-05-18T11:52:58.010Z,45.94
2019-05-18T11:55:29.940Z,46.66
2019-05-18T11:58:01.894Z,46.98
2019-05-18T12:00:33.551Z,46.76
2019-05-18T12:03:05.935Z,46.87
2019-05-18T12:05:37.679Z,46.18
2019-05-18T12:08:09.746Z,46.61
2019-05-18T12:10:42.940Z,46.51
2019-05-18T12:13:14.735Z,46.16
2019-05-18T12:15:46.600Z,46.56
2019-05-18T12:18:18.071Z,46.96
2019-05-18T12:20:49.693Z,46.28
2019-05-18T12:23:21.825Z,46.56
2019-05-18T12:25:54.913Z,46.60
2019-05-18T12:28:26.874Z,46.55
2019-05-18T12:31:01.987Z,46.57
2019-05-18T12:33:32.570Z,46.56
2019-05-18T12:36:06.272Z,46.50
2019-05-18T12:38:38.111Z,46.71
2019-05-18T12:41:10.374Z,46.50
2019-05-18T12:43:42.234Z,46.81
2019-05-18T12:46:14.169Z,46.52
2019-05-18T12:48:46.260Z,46.30
2019-05-18T12:51:18.016Z,46.13
2019-05-18T12:53:50.327Z,45.71
2019-05-18T12:56:21.940Z,45.68
2019-05-18T12:58:55.538Z,45.55
2019-05-18T13:01:27.910Z,45.97
2019-05-18T13:03:59.683Z,45.87
2019-05-18T13:06:31.432Z,46.03
2019-05-18T13:09:03.081Z,45.32
2019-05-18T13:11:35.930Z,45.76
2019-05-18T13:14:07.336Z,45.46
2019-05-18T13:16:38.886Z,45.32
2019-05-18T13:19:10.395Z,45.37
2019-05-18T13:21:41.881Z,45.78
2019-05-18T13:24:13.951Z,45.69
2019-05-18T13:26:46.006Z,45.03
2019-05-18T13:29:18.578Z,44.77
2019-05-18T13:31:50.641Z,44.81
2019-05-18T13:34:21.997Z,44.94
2019-05-18T13:36:53.442Z,44.99
2019-05-18T13:39:25.305Z,45.16
2019-05-18T13:41:57.159Z,45.29
2019-05-18T13:44:28.917Z,45.49
2019-05-18T13:47:00.876Z,46.03
2019-05-18T13:49:32.853Z,45.55
2019-05-18T13:52:05.212Z,45.94
2019-05-18T13:54:37.070Z,45.91
2019-05-18T13:57:08.726Z,46.19
2019-05-18T13:59:40.595Z,46.07
2019-05-18T14:02:12.822Z,46.45
2019-05-18T15:55:10.340Z,48.42
2019-05-18T15:57:41.995Z,48.34
2019-05-18T16:00:14.366Z,48.13
2019-05-18T16:02:45.951Z,48.25
2019-05-18T16:05:17.766Z,47.96
2019-05-18T16:07:49.737Z,48.22
2019-05-18T16:10:22.863Z,48.30
2019-05-18T16:12:54.881Z,48.70
2019-05-18T16:15:26.435Z,48.87
2019-05-18T16:17:58.093Z,48.92
2019-05-18T16:20:29.946Z,49.20
2019-05-18T16:23:01.758Z,49.31
2019-05-18T16:25:33.469Z,49.40
2019-05-18T16:28:05.120Z,49.39
2019-05-18T16:30:37.078Z,50.20
2019-05-18T16:33:08.835Z,50.34
2019-05-18T16:35:40.593Z,50.67
2019-05-18T16:38:12.045Z,51.09
2019-05-18T16:40:44.009Z,51.16
2019-05-18T16:43:15.562Z,51.74
2019-05-18T16:45:47.013Z,51.78
2019-05-18T16:48:19.281Z,51.98
2019-05-18T16:50:51.135Z,51.90
2019-05-18T16:53:23.014Z,51.92
2019-05-18T16:55:54.666Z,51.87
2019-05-18T16:58:26.324Z,52.17
2019-05-18T17:00:57.980Z,52.32
2019-05-18T17:03:30.132Z,52.13
2019-05-18T17:06:02.104Z,52.69
2019-05-18T17:08:33.546Z,52.83
2019-05-18T17:11:05.311Z,52.81
2019-05-18T17:13:37.278Z,52.96
2019-05-18T17:16:08.920Z,53.15
2019-05-18T17:18:40.982Z,53.02
2019-05-18T17:21:12.637Z,53.04
2019-05-18T17:23:44.401Z,53.05
2019-05-18T17:26:16.262Z,53.47
2019-05-18T17:28:48.316Z,53.79
2019-05-18T17:31:20.080Z,53.96
2019-05-18T17:33:51.829Z,53.66
2019-05-18T17:36:23.486Z,53.69
2019-05-18T17:38:55.060Z,54.00
2019-05-18T17:41:26.703Z,54.47
2019-05-18T17:43:58.454Z,54.94
2019-05-18T17:46:30.002Z,55.71
2019-05-18T17:49:01.575Z,56.02
2019-05-18T17:51:33.682Z,56.31
2019-05-18T17:54:05.610Z,56.66
2019-05-18T17:56:37.343Z,57.02
2019-05-18T17:59:08.999Z,57.41
2019-05-18T18:01:40.975Z,57.83
2019-05-18T18:04:13.230Z,57.92
2019-05-18T18:06:44.784Z,58.44
2019-05-18T18:09:16.440Z,58.22
2019-05-18T18:11:48.094Z,58.36
2019-05-18T18:14:20.052Z,58.36
2019-05-18T18:16:52.227Z,58.99
2019-05-18T18:19:23.975Z,58.86
2019-05-18T18:21:55.834Z,58.91
2019-05-18T18:24:27.291Z,58.90
2019-05-18T18:27:00.701Z,58.95
2019-05-18T18:29:32.547Z,59.15
2019-05-18T18:32:04.414Z,58.80
2019-05-18T18:34:36.164Z,59.04
2019-05-18T18:37:07.823Z,59.24
2019-05-18T18:39:39.381Z,59.13
2019-05-18T18:42:11.537Z,59.37
2019-05-18T18:44:43.296Z,59.43
2019-05-18T18:47:15.154Z,59.24
2019-05-18T18:49:47.013Z,59.32
2019-05-18T18:52:18.784Z,59.54
2019-05-18T18:54:50.342Z,59.11
2019-05-18T18:57:22.293Z,59.05
2019-05-18T18:59:56.856Z,58.75
2019-05-18T19:02:27.240Z,58.74
2019-05-18T19:04:58.887Z,58.60
2019-05-18T19:07:31.469Z,58.66
2019-05-18T19:10:03.344Z,58.90
2019-05-18T19:12:35.800Z,58.75
2019-05-18T19:15:09.405Z,58.67
2019-05-18T19:17:41.067Z,58.64
2019-05-18T19:20:13.192Z,58.90
2019-05-18T19:22:44.673Z,59.18
2019-05-18T19:25:15.630Z,59.12
2019-05-18T19:27:54.473Z,59.24
2019-05-18T19:30:20.661Z,59.38
2019-05-18T19:32:52.214Z,59.62
2019-05-18T19:35:23.867Z,59.11
2019-05-18T19:37:56.163Z,59.37
2019-05-18T19:40:27.687Z,59.53
2019-05-18T19:42:59.859Z,59.52
2019-05-18T19:45:31.412Z,59.80
2019-05-18T19:48:03.167Z,60.22
2019-05-18T19:50:34.924Z,60.13
2019-05-18T19:53:07.002Z,60.18
2019-05-18T19:55:38.651Z,60.12
2019-05-18T19:58:10.398Z,60.58
2019-05-18T20:00:42.462Z,60.59
2019-05-18T20:03:14.227Z,60.62
2019-05-18T20:05:45.776Z,60.46
2019-05-18T20:08:17.534Z,60.59
2019-05-18T20:10:49.217Z,60.81
2019-05-18T20:13:21.247Z,60.83
2019-05-18T20:15:52.630Z,60.73
2019-05-18T20:18:24.563Z,60.70
2019-05-18T20:20:56.417Z,60.91
2019-05-18T20:23:28.075Z,60.65
2019-05-18T20:25:59.935Z,61.03
2019-05-18T20:28:31.799Z,61.09
2019-05-18T20:31:03.945Z,61.45
2019-05-18T20:33:35.523Z,61.50
2019-05-18T20:36:07.472Z,61.81
2019-05-18T20:38:39.439Z,62.03
2019-05-18T20:41:11.303Z,62.21
2019-05-18T20:43:43.162Z,62.15
2019-05-18T20:46:14.831Z,62.43
2019-05-18T20:48:46.674Z,62.37
2019-05-18T20:51:18.531Z,62.18
2019-05-18T20:53:50.629Z,62.21
2019-05-18T20:56:22.469Z,62.56
2019-05-18T20:58:54.420Z,62.64
2019-05-18T21:01:27.107Z,63.08
2019-05-18T21:03:59.169Z,63.28
2019-05-18T21:06:30.819Z,63.64
2019-05-18T21:09:04.524Z,63.46
2019-05-18T21:11:37.098Z,63.38
2019-05-18T21:14:08.751Z,63.58
2019-05-18T21:16:40.613Z,63.43
2019-05-18T21:19:12.468Z,63.04
2019-05-18T21:21:44.021Z,62.15
2019-05-18T21:24:16.702Z,62.31
2019-05-18T21:26:48.360Z,62.45
2019-05-18T21:29:20.223Z,62.17
2019-05-18T21:31:51.876Z,62.35
2019-05-18T21:34:23.833Z,62.60
2019-05-18T21:36:55.693Z,62.87
2019-05-18T21:39:27.451Z,63.00
2019-05-18T21:41:59.314Z,63.18
2019-05-18T21:44:30.862Z,63.14
2019-05-18T21:47:02.625Z,63.56
2019-05-18T21:49:34.482Z,63.46
2019-05-18T21:52:06.448Z,63.38
2019-05-18T21:54:38.105Z,63.60
2019-05-18T21:57:08.872Z,64.07
2019-05-18T21:59:40.082Z,63.83
2019-05-18T22:02:12.549Z,63.40
2019-05-18T22:04:44.000Z,63.40
2019-05-18T22:07:15.756Z,63.69
2019-05-18T22:09:47.523Z,63.63
2019-05-18T22:12:19.174Z,63.81
2019-05-18T22:14:51.038Z,63.80
2019-05-18T22:17:22.685Z,63.99
2019-05-18T22:19:54.341Z,64.21
2019-05-18T22:22:26.308Z,64.49
2019-05-18T22:24:57.858Z,64.73
2019-05-18T22:27:29.824Z,65.06
2019-05-18T22:30:01.577Z,65.32
2019-05-18T22:32:33.645Z,65.39
2019-05-18T22:35:06.418Z,65.33
2019-05-18T22:37:38.384Z,65.24
2019-05-18T22:40:10.550Z,65.40
2019-05-18T22:42:42.102Z,65.53
2019-05-18T22:45:14.068Z,65.17
2019-05-18T22:47:46.028Z,64.81
2019-05-18T22:50:18.205Z,64.86
2019-05-18T22:52:50.607Z,64.42
2019-05-18T22:55:22.637Z,64.04
2019-05-18T22:57:54.390Z,64.06
2019-05-18T23:00:25.944Z,63.64
2019-05-18T23:02:58.369Z,63.44
2019-05-18T23:05:30.478Z,63.31
2019-05-18T23:08:02.348Z,63.07
2019-05-18T23:10:34.103Z,63.08
2019-05-18T23:13:05.751Z,62.94
2019-05-18T23:15:36.524Z,62.79
2019-05-18T23:18:07.730Z,62.93
2019-05-18T23:20:39.490Z,63.34
2019-05-18T23:23:11.861Z,63.07
2019-05-18T23:25:43.721Z,63.10
2019-05-18T23:28:15.373Z,63.06
2019-05-18T23:30:47.034Z,62.80
2019-05-18T23:33:18.585Z,62.76
2019-05-18T23:35:50.137Z,62.73
2019-05-18T23:38:21.693Z,63.06
2019-05-18T23:40:53.342Z,63.02
2019-05-18T23:43:24.215Z,62.36
2019-05-18T23:45:55.788Z,62.28
2019-05-18T23:48:27.182Z,62.44
2019-05-18T23:50:58.943Z,62.08
2019-05-18T23:53:30.791Z,62.24
2019-05-18T23:56:02.507Z,62.05
2019-05-18T23:58:34.206Z,61.95
